sensor_id;sensor_type;location;lat;lon;timestamp;P1;durP1;ratioP1;P2;durP2;ratioP2
83398;SDS011;73326;43.228;0.106;2023-11-21T00:01:53;7.57;;;1.30;;
83398;SDS011;73326;43.228;0.106;2023-11-21T00:04:19;8.18;;;1.75;;
83398;SDS011;73326;43.228;0.106;2023-11-21T00:06:46;6.63;;;1.90;;
83398;SDS011;73326;43.228;0.106;2023-11-21T00:09:16;9.43;;;1.85;;
83398;SDS011;73326;43.228;0.106;2023-11-21T00:11:43;5.25;;;1.60;;
83398;SDS011;73326;43.228;0.106;2023-11-21T00:14:10;8.48;;;1.73;;
83398;SDS011;73326;43.228;0.106;2023-11-21T00:16:37;15.25;;;2.08;;
83398;SDS011;73326;43.228;0.106;2023-11-21T00:19:03;9.02;;;1.80;;
83398;SDS011;73326;43.228;0.106;2023-11-21T00:21:29;11.82;;;1.40;;
83398;SDS011;73326;43.228;0.106;2023-11-21T00:23:55;5.95;;;1.50;;
83398;SDS011;73326;43.228;0.106;2023-11-21T00:26:21;5.38;;;1.38;;
83398;SDS011;73326;43.228;0.106;2023-11-21T00:28:49;8.63;;;1.50;;
83398;SDS011;73326;43.228;0.106;2023-11-21T00:31:15;7.63;;;1.38;;
83398;SDS011;73326;43.228;0.106;2023-11-21T00:33:41;7.28;;;1.60;;
83398;SDS011;73326;43.228;0.106;2023-11-21T00:36:08;10.93;;;1.95;;
83398;SDS011;73326;43.228;0.106;2023-11-21T00:38:37;11.10;;;1.80;;
83398;SDS011;73326;43.228;0.106;2023-11-21T00:41:05;9.57;;;2.13;;
83398;SDS011;73326;43.228;0.106;2023-11-21T00:43:31;9.30;;;1.48;;
83398;SDS011;73326;43.228;0.106;2023-11-21T00:45:58;5.82;;;1.35;;
83398;SDS011;73326;43.228;0.106;2023-11-21T00:48:24;11.63;;;1.52;;
83398;SDS011;73326;43.228;0.106;2023-11-21T00:50:51;7.63;;;1.45;;
83398;SDS011;73326;43.228;0.106;2023-11-21T00:53:17;9.95;;;2.05;;
83398;SDS011;73326;43.228;0.106;2023-11-21T00:55:43;10.85;;;2.00;;
83398;SDS011;73326;43.228;0.106;2023-11-21T00:58:09;6.47;;;1.20;;
83398;SDS011;73326;43.228;0.106;2023-11-21T01:00:35;4.93;;;1.20;;
83398;SDS011;73326;43.228;0.106;2023-11-21T01:03:04;6.18;;;1.30;;
83398;SDS011;73326;43.228;0.106;2023-11-21T01:05:30;8.13;;;1.52;;
83398;SDS011;73326;43.228;0.106;2023-11-21T01:07:56;6.45;;;1.30;;
83398;SDS011;73326;43.228;0.106;2023-11-21T01:10:22;6.95;;;1.27;;
83398;SDS011;73326;43.228;0.106;2023-11-21T01:12:49;6.35;;;1.15;;
83398;SDS011;73326;43.228;0.106;2023-11-21T01:15:16;7.57;;;1.42;;
83398;SDS011;73326;43.228;0.106;2023-11-21T01:17:42;5.30;;;1.10;;
83398;SDS011;73326;43.228;0.106;2023-11-21T01:20:08;8.55;;;2.10;;
83398;SDS011;73326;43.228;0.106;2023-11-21T01:22:37;7.70;;;1.10;;
83398;SDS011;73326;43.228;0.106;2023-11-21T01:25:03;4.78;;;0.90;;
83398;SDS011;73326;43.228;0.106;2023-11-21T01:27:31;6.07;;;1.10;;
83398;SDS011;73326;43.228;0.106;2023-11-21T01:29:57;5.50;;;1.30;;
83398;SDS011;73326;43.228;0.106;2023-11-21T01:32:23;7.70;;;0.88;;
83398;SDS011;73326;43.228;0.106;2023-11-21T01:34:50;5.78;;;1.00;;
83398;SDS011;73326;43.228;0.106;2023-11-21T01:37:16;5.63;;;1.10;;
83398;SDS011;73326;43.228;0.106;2023-11-21T01:39:42;4.15;;;0.93;;
83398;SDS011;73326;43.228;0.106;2023-11-21T01:42:09;3.90;;;0.75;;
83398;SDS011;73326;43.228;0.106;2023-11-21T01:44:36;6.28;;;0.80;;
83398;SDS011;73326;43.228;0.106;2023-11-21T01:47:02;4.93;;;1.00;;
83398;SDS011;73326;43.228;0.106;2023-11-21T01:49:30;4.90;;;1.27;;
83398;SDS011;73326;43.228;0.106;2023-11-21T01:51:57;8.23;;;1.00;;
83398;SDS011;73326;43.228;0.106;2023-11-21T01:54:23;3.08;;;0.75;;
83398;SDS011;73326;43.228;0.106;2023-11-21T01:56:49;2.22;;;0.98;;
83398;SDS011;73326;43.228;0.106;2023-11-21T01:59:17;3.60;;;0.70;;
83398;SDS011;73326;43.228;0.106;2023-11-21T02:01:43;1.75;;;0.50;;
83398;SDS011;73326;43.228;0.106;2023-11-21T02:04:09;4.65;;;0.68;;
83398;SDS011;73326;43.228;0.106;2023-11-21T02:06:35;4.70;;;0.70;;
83398;SDS011;73326;43.228;0.106;2023-11-21T02:09:01;5.78;;;0.90;;
83398;SDS011;73326;43.228;0.106;2023-11-21T02:11:29;4.53;;;0.70;;
83398;SDS011;73326;43.228;0.106;2023-11-21T02:13:56;2.13;;;0.70;;
83398;SDS011;73326;43.228;0.106;2023-11-21T02:16:23;0.77;;;0.50;;
83398;SDS011;73326;43.228;0.106;2023-11-21T02:18:50;2.60;;;0.95;;
83398;SDS011;73326;43.228;0.106;2023-11-21T02:21:17;1.58;;;0.65;;
83398;SDS011;73326;43.228;0.106;2023-11-21T02:23:44;1.67;;;0.55;;
83398;SDS011;73326;43.228;0.106;2023-11-21T02:26:11;2.15;;;0.70;;
83398;SDS011;73326;43.228;0.106;2023-11-21T02:28:38;6.35;;;1.35;;
83398;SDS011;73326;43.228;0.106;2023-11-21T02:31:05;2.15;;;0.80;;
83398;SDS011;73326;43.228;0.106;2023-11-21T02:33:32;1.60;;;0.60;;
83398;SDS011;73326;43.228;0.106;2023-11-21T02:35:59;2.38;;;0.70;;
83398;SDS011;73326;43.228;0.106;2023-11-21T02:38:25;6.38;;;0.90;;
83398;SDS011;73326;43.228;0.106;2023-11-21T02:40:51;1.80;;;0.63;;
83398;SDS011;73326;43.228;0.106;2023-11-21T02:43:18;3.25;;;0.60;;
83398;SDS011;73326;43.228;0.106;2023-11-21T02:45:44;1.55;;;0.60;;
83398;SDS011;73326;43.228;0.106;2023-11-21T02:48:10;2.92;;;0.80;;
83398;SDS011;73326;43.228;0.106;2023-11-21T02:50:36;3.35;;;0.73;;
83398;SDS011;73326;43.228;0.106;2023-11-21T02:53:03;2.45;;;0.60;;
83398;SDS011;73326;43.228;0.106;2023-11-21T02:55:30;2.67;;;0.52;;
83398;SDS011;73326;43.228;0.106;2023-11-21T02:58:00;4.03;;;0.65;;
83398;SDS011;73326;43.228;0.106;2023-11-21T03:00:26;2.38;;;0.80;;
83398;SDS011;73326;43.228;0.106;2023-11-21T03:02:53;1.95;;;0.73;;
83398;SDS011;73326;43.228;0.106;2023-11-21T03:05:20;4.80;;;0.82;;
83398;SDS011;73326;43.228;0.106;2023-11-21T03:07:46;3.53;;;0.60;;
83398;SDS011;73326;43.228;0.106;2023-11-21T03:10:12;1.75;;;0.60;;
83398;SDS011;73326;43.228;0.106;2023-11-21T03:12:38;2.15;;;0.52;;
83398;SDS011;73326;43.228;0.106;2023-11-21T03:15:05;2.25;;;0.73;;
83398;SDS011;73326;43.228;0.106;2023-11-21T03:17:31;3.33;;;0.60;;
83398;SDS011;73326;43.228;0.106;2023-11-21T03:19:58;2.35;;;0.73;;
83398;SDS011;73326;43.228;0.106;2023-11-21T03:22:24;1.95;;;0.65;;
83398;SDS011;73326;43.228;0.106;2023-11-21T03:24:51;2.38;;;0.70;;
83398;SDS011;73326;43.228;0.106;2023-11-21T03:27:17;4.82;;;0.70;;
83398;SDS011;73326;43.228;0.106;2023-11-21T03:29:44;3.15;;;0.70;;
83398;SDS011;73326;43.228;0.106;2023-11-21T03:32:11;2.22;;;0.80;;
83398;SDS011;73326;43.228;0.106;2023-11-21T03:34:48;1.88;;;0.63;;
83398;SDS011;73326;43.228;0.106;2023-11-21T03:37:18;3.90;;;0.70;;
83398;SDS011;73326;43.228;0.106;2023-11-21T03:39:45;2.75;;;0.50;;
83398;SDS011;73326;43.228;0.106;2023-11-21T03:42:12;3.42;;;0.70;;
83398;SDS011;73326;43.228;0.106;2023-11-21T03:44:38;1.63;;;0.70;;
83398;SDS011;73326;43.228;0.106;2023-11-21T03:47:04;2.92;;;0.63;;
83398;SDS011;73326;43.228;0.106;2023-11-21T03:49:30;3.35;;;0.90;;
83398;SDS011;73326;43.228;0.106;2023-11-21T03:51:56;3.38;;;0.60;;
83398;SDS011;73326;43.228;0.106;2023-11-21T03:54:22;0.65;;;0.50;;
83398;SDS011;73326;43.228;0.106;2023-11-21T03:56:49;6.30;;;1.00;;
83398;SDS011;73326;43.228;0.106;2023-11-21T03:59:15;2.80;;;0.73;;
83398;SDS011;73326;43.228;0.106;2023-11-21T04:01:41;3.90;;;1.23;;
83398;SDS011;73326;43.228;0.106;2023-11-21T04:04:07;2.95;;;0.70;;
83398;SDS011;73326;43.228;0.106;2023-11-21T04:06:33;5.82;;;0.80;;
83398;SDS011;73326;43.228;0.106;2023-11-21T04:09:00;3.58;;;0.80;;
83398;SDS011;73326;43.228;0.106;2023-11-21T04:11:26;2.15;;;0.70;;
83398;SDS011;73326;43.228;0.106;2023-11-21T04:13:54;1.23;;;0.98;;
83398;SDS011;73326;43.228;0.106;2023-11-21T04:16:20;4.60;;;0.70;;
83398;SDS011;73326;43.228;0.106;2023-11-21T04:18:47;3.40;;;0.80;;
83398;SDS011;73326;43.228;0.106;2023-11-21T04:21:13;2.92;;;0.68;;
83398;SDS011;73326;43.228;0.106;2023-11-21T04:23:39;3.33;;;0.70;;
83398;SDS011;73326;43.228;0.106;2023-11-21T04:26:05;4.53;;;0.98;;
83398;SDS011;73326;43.228;0.106;2023-11-21T04:28:31;3.47;;;1.00;;
83398;SDS011;73326;43.228;0.106;2023-11-21T04:30:57;3.10;;;0.80;;
83398;SDS011;73326;43.228;0.106;2023-11-21T04:33:23;3.80;;;0.80;;
83398;SDS011;73326;43.228;0.106;2023-11-21T04:35:50;6.05;;;1.00;;
83398;SDS011;73326;43.228;0.106;2023-11-21T04:38:16;2.90;;;0.90;;
83398;SDS011;73326;43.228;0.106;2023-11-21T04:40:44;6.43;;;0.90;;
83398;SDS011;73326;43.228;0.106;2023-11-21T04:43:10;6.10;;;0.75;;
83398;SDS011;73326;43.228;0.106;2023-11-21T04:45:36;3.65;;;1.05;;
83398;SDS011;73326;43.228;0.106;2023-11-21T04:48:02;10.40;;;1.40;;
83398;SDS011;73326;43.228;0.106;2023-11-21T04:50:28;5.78;;;0.98;;
83398;SDS011;73326;43.228;0.106;2023-11-21T04:52:54;6.60;;;1.65;;
83398;SDS011;73326;43.228;0.106;2023-11-21T04:55:20;7.22;;;1.90;;
83398;SDS011;73326;43.228;0.106;2023-11-21T04:57:46;5.57;;;1.08;;
83398;SDS011;73326;43.228;0.106;2023-11-21T05:00:12;6.00;;;1.10;;
83398;SDS011;73326;43.228;0.106;2023-11-21T05:02:42;5.35;;;0.90;;
83398;SDS011;73326;43.228;0.106;2023-11-21T05:05:09;2.65;;;0.77;;
83398;SDS011;73326;43.228;0.106;2023-11-21T05:07:35;6.50;;;1.00;;
83398;SDS011;73326;43.228;0.106;2023-11-21T05:10:03;7.32;;;1.20;;
83398;SDS011;73326;43.228;0.106;2023-11-21T05:12:31;9.30;;;1.08;;
83398;SDS011;73326;43.228;0.106;2023-11-21T05:15:07;5.00;;;1.20;;
83398;SDS011;73326;43.228;0.106;2023-11-21T05:17:36;5.15;;;1.67;;
83398;SDS011;73326;43.228;0.106;2023-11-21T05:20:05;3.20;;;0.95;;
83398;SDS011;73326;43.228;0.106;2023-11-21T05:22:34;6.80;;;1.10;;
83398;SDS011;73326;43.228;0.106;2023-11-21T05:25:00;4.97;;;0.85;;
83398;SDS011;73326;43.228;0.106;2023-11-21T05:27:27;2.35;;;0.93;;
83398;SDS011;73326;43.228;0.106;2023-11-21T05:29:54;2.35;;;0.68;;
83398;SDS011;73326;43.228;0.106;2023-11-21T05:32:20;2.83;;;0.60;;
83398;SDS011;73326;43.228;0.106;2023-11-21T05:34:47;4.95;;;0.95;;
83398;SDS011;73326;43.228;0.106;2023-11-21T05:37:14;5.05;;;0.80;;
83398;SDS011;73326;43.228;0.106;2023-11-21T05:39:40;1.95;;;0.60;;
83398;SDS011;73326;43.228;0.106;2023-11-21T05:42:06;0.98;;;0.70;;
83398;SDS011;73326;43.228;0.106;2023-11-21T05:44:34;3.42;;;0.85;;
83398;SDS011;73326;43.228;0.106;2023-11-21T05:47:00;1.83;;;0.70;;
83398;SDS011;73326;43.228;0.106;2023-11-21T05:49:26;6.07;;;1.00;;
83398;SDS011;73326;43.228;0.106;2023-11-21T05:51:53;3.63;;;0.60;;
83398;SDS011;73326;43.228;0.106;2023-11-21T05:54:19;3.35;;;1.08;;
83398;SDS011;73326;43.228;0.106;2023-11-21T05:56:45;6.45;;;0.90;;
83398;SDS011;73326;43.228;0.106;2023-11-21T05:59:12;1.70;;;0.60;;
83398;SDS011;73326;43.228;0.106;2023-11-21T06:01:38;2.50;;;0.60;;
83398;SDS011;73326;43.228;0.106;2023-11-21T06:04:04;1.15;;;0.60;;
83398;SDS011;73326;43.228;0.106;2023-11-21T06:06:30;3.13;;;0.70;;
83398;SDS011;73326;43.228;0.106;2023-11-21T06:08:57;0.82;;;0.40;;
83398;SDS011;73326;43.228;0.106;2023-11-21T06:11:24;1.67;;;0.50;;
83398;SDS011;73326;43.228;0.106;2023-11-21T06:13:50;2.30;;;0.73;;
83398;SDS011;73326;43.228;0.106;2023-11-21T06:16:17;1.20;;;0.63;;
83398;SDS011;73326;43.228;0.106;2023-11-21T06:18:45;0.65;;;0.50;;
83398;SDS011;73326;43.228;0.106;2023-11-21T06:21:11;2.15;;;0.52;;
83398;SDS011;73326;43.228;0.106;2023-11-21T06:23:38;1.10;;;0.47;;
83398;SDS011;73326;43.228;0.106;2023-11-21T06:26:05;1.33;;;0.60;;
83398;SDS011;73326;43.228;0.106;2023-11-21T06:28:31;1.65;;;0.60;;
83398;SDS011;73326;43.228;0.106;2023-11-21T06:30:57;1.27;;;0.50;;
83398;SDS011;73326;43.228;0.106;2023-11-21T06:33:23;1.02;;;0.47;;
83398;SDS011;73326;43.228;0.106;2023-11-21T06:35:52;1.23;;;0.55;;
83398;SDS011;73326;43.228;0.106;2023-11-21T06:38:18;1.42;;;0.50;;
83398;SDS011;73326;43.228;0.106;2023-11-21T06:40:44;1.52;;;0.60;;
83398;SDS011;73326;43.228;0.106;2023-11-21T06:43:11;0.88;;;0.60;;
83398;SDS011;73326;43.228;0.106;2023-11-21T06:45:37;1.42;;;0.57;;
83398;SDS011;73326;43.228;0.106;2023-11-21T06:48:03;1.42;;;1.33;;
83398;SDS011;73326;43.228;0.106;2023-11-21T06:50:29;1.85;;;0.60;;
83398;SDS011;73326;43.228;0.106;2023-11-21T06:52:56;1.48;;;0.57;;
83398;SDS011;73326;43.228;0.106;2023-11-21T06:55:22;1.10;;;0.73;;
83398;SDS011;73326;43.228;0.106;2023-11-21T06:57:48;2.33;;;0.82;;
83398;SDS011;73326;43.228;0.106;2023-11-21T07:00:15;2.25;;;0.77;;
83398;SDS011;73326;43.228;0.106;2023-11-21T07:02:42;2.22;;;0.70;;
83398;SDS011;73326;43.228;0.106;2023-11-21T07:05:08;1.98;;;0.98;;
83398;SDS011;73326;43.228;0.106;2023-11-21T07:07:34;2.20;;;0.70;;
83398;SDS011;73326;43.228;0.106;2023-11-21T07:10:02;3.20;;;0.90;;
83398;SDS011;73326;43.228;0.106;2023-11-21T07:12:29;1.13;;;0.93;;
83398;SDS011;73326;43.228;0.106;2023-11-21T07:14:56;6.28;;;1.25;;
83398;SDS011;73326;43.228;0.106;2023-11-21T07:17:22;3.65;;;1.25;;
83398;SDS011;73326;43.228;0.106;2023-11-21T07:19:48;2.72;;;1.00;;
83398;SDS011;73326;43.228;0.106;2023-11-21T07:22:15;1.35;;;1.20;;
83398;SDS011;73326;43.228;0.106;2023-11-21T07:24:47;2.60;;;0.90;;
83398;SDS011;73326;43.228;0.106;2023-11-21T07:27:14;0.98;;;0.88;;
83398;SDS011;73326;43.228;0.106;2023-11-21T07:29:40;1.13;;;0.73;;
83398;SDS011;73326;43.228;0.106;2023-11-21T07:32:08;1.00;;;0.82;;
83398;SDS011;73326;43.228;0.106;2023-11-21T07:34:34;1.45;;;0.80;;
83398;SDS011;73326;43.228;0.106;2023-11-21T07:37:01;0.57;;;0.57;;
83398;SDS011;73326;43.228;0.106;2023-11-21T07:39:27;0.88;;;0.50;;
83398;SDS011;73326;43.228;0.106;2023-11-21T07:41:53;0.40;;;0.40;;
83398;SDS011;73326;43.228;0.106;2023-11-21T07:44:19;1.30;;;0.60;;
83398;SDS011;73326;43.228;0.106;2023-11-21T07:46:46;0.50;;;0.50;;
83398;SDS011;73326;43.228;0.106;2023-11-21T07:49:12;0.82;;;0.70;;
83398;SDS011;73326;43.228;0.106;2023-11-21T07:51:43;0.55;;;0.52;;
83398;SDS011;73326;43.228;0.106;2023-11-21T07:54:09;3.75;;;0.70;;
83398;SDS011;73326;43.228;0.106;2023-11-21T07:56:35;0.52;;;0.52;;
83398;SDS011;73326;43.228;0.106;2023-11-21T07:59:01;0.50;;;0.50;;
83398;SDS011;73326;43.228;0.106;2023-11-21T08:01:27;0.88;;;0.60;;
83398;SDS011;73326;43.228;0.106;2023-11-21T08:03:53;1.08;;;0.60;;
83398;SDS011;73326;43.228;0.106;2023-11-21T08:06:22;0.68;;;0.68;;
83398;SDS011;73326;43.228;0.106;2023-11-21T08:08:49;0.60;;;0.60;;
83398;SDS011;73326;43.228;0.106;2023-11-21T08:11:15;0.57;;;0.57;;
83398;SDS011;73326;43.228;0.106;2023-11-21T08:13:41;0.70;;;0.63;;
83398;SDS011;73326;43.228;0.106;2023-11-21T08:16:07;0.80;;;0.80;;
83398;SDS011;73326;43.228;0.106;2023-11-21T08:18:33;1.33;;;0.90;;
83398;SDS011;73326;43.228;0.106;2023-11-21T08:21:00;1.35;;;0.63;;
83398;SDS011;73326;43.228;0.106;2023-11-21T08:23:26;0.68;;;0.68;;
83398;SDS011;73326;43.228;0.106;2023-11-21T08:25:53;0.80;;;0.80;;
83398;SDS011;73326;43.228;0.106;2023-11-21T08:28:20;1.17;;;0.70;;
83398;SDS011;73326;43.228;0.106;2023-11-21T08:30:51;2.17;;;0.90;;
83398;SDS011;73326;43.228;0.106;2023-11-21T08:33:18;1.20;;;1.10;;
83398;SDS011;73326;43.228;0.106;2023-11-21T08:35:44;1.77;;;0.98;;
83398;SDS011;73326;43.228;0.106;2023-11-21T08:38:11;1.30;;;1.00;;
83398;SDS011;73326;43.228;0.106;2023-11-21T08:40:37;1.10;;;1.00;;
83398;SDS011;73326;43.228;0.106;2023-11-21T08:43:03;1.98;;;1.50;;
83398;SDS011;73326;43.228;0.106;2023-11-21T08:45:33;2.83;;;1.55;;
83398;SDS011;73326;43.228;0.106;2023-11-21T08:48:02;2.47;;;1.30;;
83398;SDS011;73326;43.228;0.106;2023-11-21T08:50:29;2.45;;;1.20;;
83398;SDS011;73326;43.228;0.106;2023-11-21T08:52:55;3.70;;;1.98;;
83398;SDS011;73326;43.228;0.106;2023-11-21T08:55:21;1.98;;;1.45;;
83398;SDS011;73326;43.228;0.106;2023-11-21T08:57:47;3.65;;;1.85;;
83398;SDS011;73326;43.228;0.106;2023-11-21T09:00:13;2.70;;;1.90;;
83398;SDS011;73326;43.228;0.106;2023-11-21T09:02:41;5.28;;;1.80;;
83398;SDS011;73326;43.228;0.106;2023-11-21T09:05:08;2.38;;;1.58;;
83398;SDS011;73326;43.228;0.106;2023-11-21T09:07:34;3.35;;;2.20;;
83398;SDS011;73326;43.228;0.106;2023-11-21T09:10:00;3.25;;;1.35;;
83398;SDS011;73326;43.228;0.106;2023-11-21T09:12:27;2.67;;;1.42;;
83398;SDS011;73326;43.228;0.106;2023-11-21T09:14:53;2.20;;;1.70;;
83398;SDS011;73326;43.228;0.106;2023-11-21T09:17:19;4.60;;;2.00;;
83398;SDS011;73326;43.228;0.106;2023-11-21T09:19:45;2.67;;;1.50;;
83398;SDS011;73326;43.228;0.106;2023-11-21T09:22:15;3.10;;;1.90;;
83398;SDS011;73326;43.228;0.106;2023-11-21T09:24:41;1.98;;;1.77;;
83398;SDS011;73326;43.228;0.106;2023-11-21T09:27:07;3.75;;;1.80;;
83398;SDS011;73326;43.228;0.106;2023-11-21T09:29:34;3.28;;;1.83;;
83398;SDS011;73326;43.228;0.106;2023-11-21T09:32:00;4.30;;;1.92;;
83398;SDS011;73326;43.228;0.106;2023-11-21T09:34:26;3.53;;;1.60;;
83398;SDS011;73326;43.228;0.106;2023-11-21T09:36:52;3.05;;;1.70;;
83398;SDS011;73326;43.228;0.106;2023-11-21T09:39:19;4.43;;;1.50;;
83398;SDS011;73326;43.228;0.106;2023-11-21T09:41:51;5.70;;;1.70;;
83398;SDS011;73326;43.228;0.106;2023-11-21T09:44:29;3.75;;;1.55;;
83398;SDS011;73326;43.228;0.106;2023-11-21T09:46:58;3.88;;;1.55;;
83398;SDS011;73326;43.228;0.106;2023-11-21T09:49:25;3.00;;;1.52;;
83398;SDS011;73326;43.228;0.106;2023-11-21T09:51:53;8.93;;;2.10;;
83398;SDS011;73326;43.228;0.106;2023-11-21T09:54:22;4.20;;;1.63;;
83398;SDS011;73326;43.228;0.106;2023-11-21T09:56:48;3.47;;;1.83;;
83398;SDS011;73326;43.228;0.106;2023-11-21T09:59:15;3.97;;;1.70;;
83398;SDS011;73326;43.228;0.106;2023-11-21T10:01:41;2.80;;;1.42;;
83398;SDS011;73326;43.228;0.106;2023-11-21T10:04:11;2.88;;;1.60;;
83398;SDS011;73326;43.228;0.106;2023-11-21T10:06:40;2.42;;;1.65;;
83398;SDS011;73326;43.228;0.106;2023-11-21T10:09:09;3.33;;;1.55;;
83398;SDS011;73326;43.228;0.106;2023-11-21T10:11:40;3.40;;;1.50;;
83398;SDS011;73326;43.228;0.106;2023-11-21T10:14:10;4.47;;;1.45;;
83398;SDS011;73326;43.228;0.106;2023-11-21T10:16:37;4.30;;;1.58;;
83398;SDS011;73326;43.228;0.106;2023-11-21T10:19:04;5.10;;;1.75;;
83398;SDS011;73326;43.228;0.106;2023-11-21T10:21:33;7.45;;;1.80;;
83398;SDS011;73326;43.228;0.106;2023-11-21T10:23:59;4.32;;;1.55;;
83398;SDS011;73326;43.228;0.106;2023-11-21T10:26:26;3.83;;;1.70;;
83398;SDS011;73326;43.228;0.106;2023-11-21T10:28:58;5.50;;;1.83;;
83398;SDS011;73326;43.228;0.106;2023-11-21T10:31:28;5.35;;;2.10;;
83398;SDS011;73326;43.228;0.106;2023-11-21T10:33:55;5.80;;;1.73;;
83398;SDS011;73326;43.228;0.106;2023-11-21T10:36:27;7.43;;;1.73;;
83398;SDS011;73326;43.228;0.106;2023-11-21T10:38:53;3.10;;;1.67;;
83398;SDS011;73326;43.228;0.106;2023-11-21T10:41:20;4.60;;;1.70;;
83398;SDS011;73326;43.228;0.106;2023-11-21T10:43:46;5.45;;;1.90;;
83398;SDS011;73326;43.228;0.106;2023-11-21T10:46:13;3.38;;;1.63;;
83398;SDS011;73326;43.228;0.106;2023-11-21T10:48:40;2.35;;;1.55;;
83398;SDS011;73326;43.228;0.106;2023-11-21T10:51:07;2.20;;;1.30;;
83398;SDS011;73326;43.228;0.106;2023-11-21T10:53:34;5.05;;;1.55;;
83398;SDS011;73326;43.228;0.106;2023-11-21T10:56:05;3.35;;;1.60;;
83398;SDS011;73326;43.228;0.106;2023-11-21T10:58:32;2.78;;;1.20;;
83398;SDS011;73326;43.228;0.106;2023-11-21T11:00:58;2.03;;;1.10;;
83398;SDS011;73326;43.228;0.106;2023-11-21T11:03:25;3.53;;;1.20;;
83398;SDS011;73326;43.228;0.106;2023-11-21T11:05:51;3.35;;;1.08;;
83398;SDS011;73326;43.228;0.106;2023-11-21T11:08:20;2.78;;;1.27;;
83398;SDS011;73326;43.228;0.106;2023-11-21T11:10:51;4.07;;;1.88;;
83398;SDS011;73326;43.228;0.106;2023-11-21T11:13:17;2.67;;;1.50;;
83398;SDS011;73326;43.228;0.106;2023-11-21T11:15:47;2.25;;;1.20;;
83398;SDS011;73326;43.228;0.106;2023-11-21T11:18:13;2.70;;;1.33;;
83398;SDS011;73326;43.228;0.106;2023-11-21T11:20:40;2.33;;;1.17;;
83398;SDS011;73326;43.228;0.106;2023-11-21T11:23:27;3.75;;;1.50;;
83398;SDS011;73326;43.228;0.106;2023-11-21T11:36:49;2.92;;;1.60;;
83398;SDS011;73326;43.228;0.106;2023-11-21T11:39:28;6.53;;;2.20;;
83398;SDS011;73326;43.228;0.106;2023-11-21T11:41:57;3.40;;;1.50;;
83398;SDS011;73326;43.228;0.106;2023-11-21T11:47:19;3.33;;;1.65;;
83398;SDS011;73326;43.228;0.106;2023-11-21T11:49:56;2.20;;;1.27;;
83398;SDS011;73326;43.228;0.106;2023-11-21T11:52:35;3.28;;;1.60;;
83398;SDS011;73326;43.228;0.106;2023-11-21T11:55:04;4.55;;;1.80;;
83398;SDS011;73326;43.228;0.106;2023-11-21T11:57:30;3.03;;;1.80;;
83398;SDS011;73326;43.228;0.106;2023-11-21T12:02:50;2.00;;;1.42;;
83398;SDS011;73326;43.228;0.106;2023-11-21T12:05:17;2.70;;;1.45;;
83398;SDS011;73326;43.228;0.106;2023-11-21T12:07:47;2.97;;;1.30;;
83398;SDS011;73326;43.228;0.106;2023-11-21T12:10:14;3.30;;;1.20;;
83398;SDS011;73326;43.228;0.106;2023-11-21T12:12:43;3.88;;;1.40;;
83398;SDS011;73326;43.228;0.106;2023-11-21T12:15:10;4.05;;;2.00;;
83398;SDS011;73326;43.228;0.106;2023-11-21T12:17:37;2.53;;;1.77;;
83398;SDS011;73326;43.228;0.106;2023-11-21T12:20:04;3.72;;;2.15;;
83398;SDS011;73326;43.228;0.106;2023-11-21T12:22:41;1.60;;;1.40;;
83398;SDS011;73326;43.228;0.106;2023-11-21T12:25:07;3.03;;;1.30;;
83398;SDS011;73326;43.228;0.106;2023-11-21T12:27:33;2.05;;;1.23;;
83398;SDS011;73326;43.228;0.106;2023-11-21T12:30:00;2.00;;;0.90;;
83398;SDS011;73326;43.228;0.106;2023-11-21T12:32:26;1.75;;;1.33;;
83398;SDS011;73326;43.228;0.106;2023-11-21T12:34:52;2.63;;;1.30;;
83398;SDS011;73326;43.228;0.106;2023-11-21T12:37:18;4.25;;;1.65;;
83398;SDS011;73326;43.228;0.106;2023-11-21T12:39:44;4.55;;;1.50;;
83398;SDS011;73326;43.228;0.106;2023-11-21T12:42:10;3.78;;;1.88;;
83398;SDS011;73326;43.228;0.106;2023-11-21T12:44:36;3.10;;;1.40;;
83398;SDS011;73326;43.228;0.106;2023-11-21T12:47:06;1.70;;;1.38;;
83398;SDS011;73326;43.228;0.106;2023-11-21T12:49:32;3.63;;;1.40;;
83398;SDS011;73326;43.228;0.106;2023-11-21T12:51:59;2.50;;;1.10;;
83398;SDS011;73326;43.228;0.106;2023-11-21T12:54:25;1.60;;;1.10;;
83398;SDS011;73326;43.228;0.106;2023-11-21T12:56:51;2.28;;;1.10;;
83398;SDS011;73326;43.228;0.106;2023-11-21T12:59:17;1.98;;;1.38;;
83398;SDS011;73326;43.228;0.106;2023-11-21T13:01:43;1.25;;;1.00;;
83398;SDS011;73326;43.228;0.106;2023-11-21T13:04:11;2.45;;;1.10;;
83398;SDS011;73326;43.228;0.106;2023-11-21T13:06:37;1.20;;;1.08;;
83398;SDS011;73326;43.228;0.106;2023-11-21T13:09:09;2.35;;;1.00;;
83398;SDS011;73326;43.228;0.106;2023-11-21T13:11:36;1.67;;;1.00;;
83398;SDS011;73326;43.228;0.106;2023-11-21T13:14:02;1.77;;;1.10;;
83398;SDS011;73326;43.228;0.106;2023-11-21T13:16:28;2.88;;;1.30;;
83398;SDS011;73326;43.228;0.106;2023-11-21T13:18:56;4.03;;;1.20;;
83398;SDS011;73326;43.228;0.106;2023-11-21T13:21:24;1.35;;;1.08;;
83398;SDS011;73326;43.228;0.106;2023-11-21T13:23:50;1.48;;;1.10;;
83398;SDS011;73326;43.228;0.106;2023-11-21T13:26:18;2.03;;;1.17;;
83398;SDS011;73326;43.228;0.106;2023-11-21T13:28:45;2.40;;;1.00;;
83398;SDS011;73326;43.228;0.106;2023-11-21T13:31:12;2.03;;;1.27;;
83398;SDS011;73326;43.228;0.106;2023-11-21T13:33:51;3.28;;;1.48;;
83398;SDS011;73326;43.228;0.106;2023-11-21T13:36:24;3.15;;;1.70;;
83398;SDS011;73326;43.228;0.106;2023-11-21T13:38:51;2.35;;;1.40;;
83398;SDS011;73326;43.228;0.106;2023-11-21T13:41:20;1.73;;;1.63;;
83398;SDS011;73326;43.228;0.106;2023-11-21T13:43:53;3.55;;;1.45;;
83398;SDS011;73326;43.228;0.106;2023-11-21T13:46:28;2.95;;;1.30;;
83398;SDS011;73326;43.228;0.106;2023-11-21T13:48:56;1.30;;;1.20;;
83398;SDS011;73326;43.228;0.106;2023-11-21T13:51:22;2.33;;;1.48;;
83398;SDS011;73326;43.228;0.106;2023-11-21T13:54:04;2.90;;;1.60;;
83398;SDS011;73326;43.228;0.106;2023-11-21T13:56:34;4.03;;;1.20;;
83398;SDS011;73326;43.228;0.106;2023-11-21T13:59:00;2.17;;;1.20;;
83398;SDS011;73326;43.228;0.106;2023-11-21T14:01:34;2.10;;;1.60;;
83398;SDS011;73326;43.228;0.106;2023-11-21T14:04:19;2.95;;;1.77;;
83398;SDS011;73326;43.228;0.106;2023-11-21T14:06:57;2.10;;;1.90;;
83398;SDS011;73326;43.228;0.106;2023-11-21T14:09:26;2.58;;;1.90;;
83398;SDS011;73326;43.228;0.106;2023-11-21T14:11:58;2.88;;;1.50;;
83398;SDS011;73326;43.228;0.106;2023-11-21T14:14:26;1.73;;;1.33;;
83398;SDS011;73326;43.228;0.106;2023-11-21T14:16:55;2.92;;;1.60;;
83398;SDS011;73326;43.228;0.106;2023-11-21T14:19:22;4.05;;;1.75;;
83398;SDS011;73326;43.228;0.106;2023-11-21T14:21:52;3.58;;;1.48;;
83398;SDS011;73326;43.228;0.106;2023-11-21T14:24:18;1.55;;;1.30;;
83398;SDS011;73326;43.228;0.106;2023-11-21T14:26:48;2.60;;;1.73;;
83398;SDS011;73326;43.228;0.106;2023-11-21T14:29:15;3.03;;;1.63;;
83398;SDS011;73326;43.228;0.106;2023-11-21T14:31:45;3.70;;;1.88;;
83398;SDS011;73326;43.228;0.106;2023-11-21T14:34:11;2.53;;;1.90;;
83398;SDS011;73326;43.228;0.106;2023-11-21T14:36:38;3.38;;;1.70;;
83398;SDS011;73326;43.228;0.106;2023-11-21T14:39:05;3.20;;;1.55;;
83398;SDS011;73326;43.228;0.106;2023-11-21T14:41:34;5.45;;;1.42;;
83398;SDS011;73326;43.228;0.106;2023-11-21T14:44:01;2.53;;;1.50;;
83398;SDS011;73326;43.228;0.106;2023-11-21T14:46:32;2.38;;;1.15;;
83398;SDS011;73326;43.228;0.106;2023-11-21T14:49:00;3.05;;;1.30;;
83398;SDS011;73326;43.228;0.106;2023-11-21T14:51:55;2.85;;;1.40;;
83398;SDS011;73326;43.228;0.106;2023-11-21T14:54:51;1.73;;;1.42;;
83398;SDS011;73326;43.228;0.106;2023-11-21T14:57:37;2.03;;;1.80;;
83398;SDS011;73326;43.228;0.106;2023-11-21T15:00:03;2.90;;;1.90;;
83398;SDS011;73326;43.228;0.106;2023-11-21T15:02:34;4.13;;;1.60;;
83398;SDS011;73326;43.228;0.106;2023-11-21T15:05:30;3.75;;;1.60;;
83398;SDS011;73326;43.228;0.106;2023-11-21T15:07:56;1.52;;;1.42;;